sensor_id;sensor_type;location;lat;lon;timestamp;P1;durP1;ratioP1;P2;durP2;ratioP2
10947;SDS011;5526;42.070;24.752;2022-08-05T00:02:18;3.30;;;3.10;;
10947;SDS011;5526;42.070;24.752;2022-08-05T00:04:45;3.13;;;2.90;;
10947;SDS011;5526;42.070;24.752;2022-08-05T00:07:12;4.45;;;3.35;;
10947;SDS011;5526;42.070;24.752;2022-08-05T00:09:39;3.72;;;3.42;;
10947;SDS011;5526;42.070;24.752;2022-08-05T00:12:06;3.97;;;3.65;;
10947;SDS011;5526;42.070;24.752;2022-08-05T00:14:34;5.68;;;3.63;;
10947;SDS011;5526;42.070;24.752;2022-08-05T00:17:02;6.57;;;3.65;;
10947;SDS011;5526;42.070;24.752;2022-08-05T00:19:29;3.83;;;3.47;;
10947;SDS011;5526;42.070;24.752;2022-08-05T00:21:56;4.55;;;4.03;;
10947;SDS011;5526;42.070;24.752;2022-08-05T00:24:23;3.67;;;3.38;;
10947;SDS011;5526;42.070;24.752;2022-08-05T00:26:50;3.85;;;3.55;;
10947;SDS011;5526;42.070;24.752;2022-08-05T00:29:17;3.83;;;3.45;;
10947;SDS011;5526;42.070;24.752;2022-08-05T00:31:45;4.10;;;3.33;;
10947;SDS011;5526;42.070;24.752;2022-08-05T00:34:14;4.30;;;3.60;;
10947;SDS011;5526;42.070;24.752;2022-08-05T00:36:41;4.00;;;3.60;;
10947;SDS011;5526;42.070;24.752;2022-08-05T00:39:08;3.67;;;3.38;;
10947;SDS011;5526;42.070;24.752;2022-08-05T00:41:35;3.65;;;3.40;;
10947;SDS011;5526;42.070;24.752;2022-08-05T00:44:02;3.15;;;3.03;;
10947;SDS011;5526;42.070;24.752;2022-08-05T00:46:30;3.75;;;3.20;;
10947;SDS011;5526;42.070;24.752;2022-08-05T00:48:57;3.72;;;3.40;;
10947;SDS011;5526;42.070;24.752;2022-08-05T00:51:25;3.50;;;3.30;;
10947;SDS011;5526;42.070;24.752;2022-08-05T00:53:52;3.40;;;3.10;;
10947;SDS011;5526;42.070;24.752;2022-08-05T00:56:19;3.13;;;3.03;;
10947;SDS011;5526;42.070;24.752;2022-08-05T00:58:47;4.05;;;3.08;;
10947;SDS011;5526;42.070;24.752;2022-08-05T01:01:14;3.50;;;3.30;;
10947;SDS011;5526;42.070;24.752;2022-08-05T01:03:41;3.30;;;3.10;;
10947;SDS011;5526;42.070;24.752;2022-08-05T01:06:08;4.57;;;3.10;;
10947;SDS011;5526;42.070;24.752;2022-08-05T01:08:37;3.47;;;3.20;;
10947;SDS011;5526;42.070;24.752;2022-08-05T01:11:06;3.42;;;3.13;;
10947;SDS011;5526;42.070;24.752;2022-08-05T01:13:40;5.90;;;3.25;;
10947;SDS011;5526;42.070;24.752;2022-08-05T01:16:13;7.32;;;3.58;;
10947;SDS011;5526;42.070;24.752;2022-08-05T01:18:49;3.88;;;3.58;;
10947;SDS011;5526;42.070;24.752;2022-08-05T01:21:24;3.55;;;3.35;;
10947;SDS011;5526;42.070;24.752;2022-08-05T01:24:18;4.40;;;3.72;;
10947;SDS011;5526;42.070;24.752;2022-08-05T01:27:00;3.67;;;3.38;;
10947;SDS011;5526;42.070;24.752;2022-08-05T01:29:35;4.20;;;3.53;;
10947;SDS011;5526;42.070;24.752;2022-08-05T01:32:06;3.90;;;3.65;;
10947;SDS011;5526;42.070;24.752;2022-08-05T01:34:37;3.80;;;3.50;;
10947;SDS011;5526;42.070;24.752;2022-08-05T01:37:11;3.63;;;3.30;;
10947;SDS011;5526;42.070;24.752;2022-08-05T01:39:41;3.40;;;3.10;;
10947;SDS011;5526;42.070;24.752;2022-08-05T01:42:12;3.50;;;3.30;;
10947;SDS011;5526;42.070;24.752;2022-08-05T01:44:43;3.75;;;3.55;;
10947;SDS011;5526;42.070;24.752;2022-08-05T01:47:11;3.35;;;3.15;;
10947;SDS011;5526;42.070;24.752;2022-08-05T01:49:43;4.90;;;3.45;;
10947;SDS011;5526;42.070;24.752;2022-08-05T01:52:11;3.72;;;3.50;;
10947;SDS011;5526;42.070;24.752;2022-08-05T01:54:41;3.95;;;3.55;;
10947;SDS011;5526;42.070;24.752;2022-08-05T01:57:12;4.97;;;3.67;;
10947;SDS011;5526;42.070;24.752;2022-08-05T01:59:44;3.90;;;3.60;;
10947;SDS011;5526;42.070;24.752;2022-08-05T02:02:14;4.03;;;3.20;;
10947;SDS011;5526;42.070;24.752;2022-08-05T02:04:45;3.70;;;3.50;;
10947;SDS011;5526;42.070;24.752;2022-08-05T02:07:14;3.58;;;3.38;;
10947;SDS011;5526;42.070;24.752;2022-08-05T02:09:41;3.72;;;3.42;;
10947;SDS011;5526;42.070;24.752;2022-08-05T02:12:11;3.60;;;3.40;;
10947;SDS011;5526;42.070;24.752;2022-08-05T02:14:48;3.65;;;3.45;;
10947;SDS011;5526;42.070;24.752;2022-08-05T02:17:22;3.97;;;3.60;;
10947;SDS011;5526;42.070;24.752;2022-08-05T02:19:54;3.63;;;3.42;;
10947;SDS011;5526;42.070;24.752;2022-08-05T02:22:27;3.75;;;3.42;;
10947;SDS011;5526;42.070;24.752;2022-08-05T02:24:57;3.83;;;3.63;;
10947;SDS011;5526;42.070;24.752;2022-08-05T02:27:28;4.28;;;3.97;;
10947;SDS011;5526;42.070;24.752;2022-08-05T02:29:59;4.05;;;3.55;;
10947;SDS011;5526;42.070;24.752;2022-08-05T02:32:27;4.40;;;3.92;;
10947;SDS011;5526;42.070;24.752;2022-08-05T02:34:55;4.97;;;4.22;;
10947;SDS011;5526;42.070;24.752;2022-08-05T02:37:25;4.38;;;4.07;;
10947;SDS011;5526;42.070;24.752;2022-08-05T02:39:53;4.68;;;4.28;;
10947;SDS011;5526;42.070;24.752;2022-08-05T02:42:20;5.05;;;4.55;;
10947;SDS011;5526;42.070;24.752;2022-08-05T02:44:49;5.03;;;4.53;;
10947;SDS011;5526;42.070;24.752;2022-08-05T02:47:20;4.78;;;4.47;;
10947;SDS011;5526;42.070;24.752;2022-08-05T02:49:48;4.82;;;4.45;;
10947;SDS011;5526;42.070;24.752;2022-08-05T02:52:15;4.70;;;4.10;;
10947;SDS011;5526;42.070;24.752;2022-08-05T02:54:44;4.68;;;4.38;;
10947;SDS011;5526;42.070;24.752;2022-08-05T02:57:13;4.63;;;4.28;;
10947;SDS011;5526;42.070;24.752;2022-08-05T02:59:43;4.82;;;4.43;;
10947;SDS011;5526;42.070;24.752;2022-08-05T03:02:11;4.82;;;4.05;;
10947;SDS011;5526;42.070;24.752;2022-08-05T03:04:41;4.95;;;4.43;;
10947;SDS011;5526;42.070;24.752;2022-08-05T03:07:09;4.90;;;4.50;;
10947;SDS011;5526;42.070;24.752;2022-08-05T03:09:38;5.28;;;4.88;;
10947;SDS011;5526;42.070;24.752;2022-08-05T03:12:08;5.28;;;4.88;;
10947;SDS011;5526;42.070;24.752;2022-08-05T03:14:35;5.20;;;4.55;;
10947;SDS011;5526;42.070;24.752;2022-08-05T03:17:02;5.40;;;4.90;;
10947;SDS011;5526;42.070;24.752;2022-08-05T03:19:29;5.60;;;5.20;;
10947;SDS011;5526;42.070;24.752;2022-08-05T03:21:57;6.00;;;5.43;;
10947;SDS011;5526;42.070;24.752;2022-08-05T03:24:24;7.32;;;6.30;;
10947;SDS011;5526;42.070;24.752;2022-08-05T03:26:53;5.97;;;5.47;;
10947;SDS011;5526;42.070;24.752;2022-08-05T03:29:20;6.53;;;5.40;;
10947;SDS011;5526;42.070;24.752;2022-08-05T03:31:47;5.97;;;5.63;;
10947;SDS011;5526;42.070;24.752;2022-08-05T03:34:14;9.55;;;6.43;;
10947;SDS011;5526;42.070;24.752;2022-08-05T03:36:41;6.28;;;5.68;;
10947;SDS011;5526;42.070;24.752;2022-08-05T03:39:10;6.35;;;5.82;;
10947;SDS011;5526;42.070;24.752;2022-08-05T03:41:37;6.20;;;5.80;;
10947;SDS011;5526;42.070;24.752;2022-08-05T03:44:04;6.13;;;5.53;;
10947;SDS011;5526;42.070;24.752;2022-08-05T03:46:31;5.85;;;5.45;;
10947;SDS011;5526;42.070;24.752;2022-08-05T03:48:58;6.15;;;5.65;;
10947;SDS011;5526;42.070;24.752;2022-08-05T03:51:27;6.18;;;5.78;;
10947;SDS011;5526;42.070;24.752;2022-08-05T03:53:58;5.88;;;5.47;;
10947;SDS011;5526;42.070;24.752;2022-08-05T03:56:31;5.78;;;5.38;;
10947;SDS011;5526;42.070;24.752;2022-08-05T03:59:02;5.72;;;5.43;;
10947;SDS011;5526;42.070;24.752;2022-08-05T04:01:33;6.03;;;5.45;;
10947;SDS011;5526;42.070;24.752;2022-08-05T04:04:03;6.13;;;5.55;;
10947;SDS011;5526;42.070;24.752;2022-08-05T04:06:31;6.80;;;5.57;;
10947;SDS011;5526;42.070;24.752;2022-08-05T04:08:59;5.07;;;4.68;;
10947;SDS011;5526;42.070;24.752;2022-08-05T04:11:28;5.45;;;4.95;;
10947;SDS011;5526;42.070;24.752;2022-08-05T04:13:56;4.93;;;4.63;;
10947;SDS011;5526;42.070;24.752;2022-08-05T04:16:24;5.32;;;5.03;;
10947;SDS011;5526;42.070;24.752;2022-08-05T04:18:51;5.00;;;4.60;;
10947;SDS011;5526;42.070;24.752;2022-08-05T04:21:19;5.68;;;4.78;;
10947;SDS011;5526;42.070;24.752;2022-08-05T04:23:46;4.72;;;4.32;;
10947;SDS011;5526;42.070;24.752;2022-08-05T04:26:13;4.60;;;4.22;;
10947;SDS011;5526;42.070;24.752;2022-08-05T04:28:42;4.63;;;4.30;;
10947;SDS011;5526;42.070;24.752;2022-08-05T04:31:09;4.57;;;4.28;;
10947;SDS011;5526;42.070;24.752;2022-08-05T04:33:36;5.75;;;4.75;;
10947;SDS011;5526;42.070;24.752;2022-08-05T04:36:03;5.43;;;5.10;;
10947;SDS011;5526;42.070;24.752;2022-08-05T04:38:30;6.65;;;4.70;;
10947;SDS011;5526;42.070;24.752;2022-08-05T04:40:57;5.35;;;4.15;;
10947;SDS011;5526;42.070;24.752;2022-08-05T04:43:24;9.13;;;4.00;;
10947;SDS011;5526;42.070;24.752;2022-08-05T04:45:52;4.60;;;4.20;;
10947;SDS011;5526;42.070;24.752;2022-08-05T04:48:19;3.88;;;3.53;;
10947;SDS011;5526;42.070;24.752;2022-08-05T04:50:47;4.45;;;4.05;;
10947;SDS011;5526;42.070;24.752;2022-08-05T04:53:15;4.72;;;4.13;;
10947;SDS011;5526;42.070;24.752;2022-08-05T04:55:44;4.30;;;4.00;;
10947;SDS011;5526;42.070;24.752;2022-08-05T04:58:12;11.60;;;4.30;;
10947;SDS011;5526;42.070;24.752;2022-08-05T05:00:40;5.90;;;3.80;;
10947;SDS011;5526;42.070;24.752;2022-08-05T05:03:09;4.60;;;4.20;;
10947;SDS011;5526;42.070;24.752;2022-08-05T05:05:36;5.30;;;4.90;;
10947;SDS011;5526;42.070;24.752;2022-08-05T05:08:04;5.88;;;5.07;;
10947;SDS011;5526;42.070;24.752;2022-08-05T05:10:37;5.47;;;4.93;;
10947;SDS011;5526;42.070;24.752;2022-08-05T05:13:07;4.95;;;4.60;;
10947;SDS011;5526;42.070;24.752;2022-08-05T05:15:34;5.65;;;4.60;;
10947;SDS011;5526;42.070;24.752;2022-08-05T05:18:01;7.53;;;5.22;;
10947;SDS011;5526;42.070;24.752;2022-08-05T05:20:30;5.20;;;4.80;;
10947;SDS011;5526;42.070;24.752;2022-08-05T05:22:58;4.60;;;4.20;;
10947;SDS011;5526;42.070;24.752;2022-08-05T05:25:28;5.40;;;4.97;;
10947;SDS011;5526;42.070;24.752;2022-08-05T05:27:55;7.63;;;4.90;;
10947;SDS011;5526;42.070;24.752;2022-08-05T05:30:22;5.00;;;4.40;;
10947;SDS011;5526;42.070;24.752;2022-08-05T05:32:49;4.93;;;4.53;;
10947;SDS011;5526;42.070;24.752;2022-08-05T05:35:17;5.40;;;4.50;;
10947;SDS011;5526;42.070;24.752;2022-08-05T05:37:48;7.07;;;5.07;;
10947;SDS011;5526;42.070;24.752;2022-08-05T05:40:17;6.63;;;4.70;;
10947;SDS011;5526;42.070;24.752;2022-08-05T05:42:45;6.13;;;4.82;;
10947;SDS011;5526;42.070;24.752;2022-08-05T05:45:12;6.38;;;5.82;;
10947;SDS011;5526;42.070;24.752;2022-08-05T05:47:39;6.57;;;6.07;;
10947;SDS011;5526;42.070;24.752;2022-08-05T05:50:06;6.72;;;5.97;;
10947;SDS011;5526;42.070;24.752;2022-08-05T05:52:34;5.70;;;5.30;;
10947;SDS011;5526;42.070;24.752;2022-08-05T05:55:03;6.15;;;5.60;;
10947;SDS011;5526;42.070;24.752;2022-08-05T05:57:33;6.80;;;6.10;;
10947;SDS011;5526;42.070;24.752;2022-08-05T06:00:00;6.57;;;5.97;;
10947;SDS011;5526;42.070;24.752;2022-08-05T06:02:27;5.82;;;5.32;;
10947;SDS011;5526;42.070;24.752;2022-08-05T06:04:54;5.75;;;4.88;;
10947;SDS011;5526;42.070;24.752;2022-08-05T06:07:21;7.13;;;5.10;;
10947;SDS011;5526;42.070;24.752;2022-08-05T06:09:48;5.82;;;5.30;;
10947;SDS011;5526;42.070;24.752;2022-08-05T06:12:16;5.57;;;5.07;;
10947;SDS011;5526;42.070;24.752;2022-08-05T06:14:43;6.00;;;5.38;;
10947;SDS011;5526;42.070;24.752;2022-08-05T06:17:10;5.85;;;5.35;;
10947;SDS011;5526;42.070;24.752;2022-08-05T06:19:38;5.43;;;5.00;;
10947;SDS011;5526;42.070;24.752;2022-08-05T06:22:06;5.13;;;4.60;;
10947;SDS011;5526;42.070;24.752;2022-08-05T06:24:34;5.05;;;4.65;;
10947;SDS011;5526;42.070;24.752;2022-08-05T06:27:02;5.03;;;4.63;;
10947;SDS011;5526;42.070;24.752;2022-08-05T06:29:30;5.95;;;4.85;;
10947;SDS011;5526;42.070;24.752;2022-08-05T06:31:57;5.05;;;4.65;;
10947;SDS011;5526;42.070;24.752;2022-08-05T06:34:24;6.78;;;5.07;;
10947;SDS011;5526;42.070;24.752;2022-08-05T06:36:51;5.07;;;4.57;;
10947;SDS011;5526;42.070;24.752;2022-08-05T06:39:18;11.48;;;4.90;;
10947;SDS011;5526;42.070;24.752;2022-08-05T06:41:45;5.40;;;4.72;;
10947;SDS011;5526;42.070;24.752;2022-08-05T06:44:12;5.13;;;4.20;;
10947;SDS011;5526;42.070;24.752;2022-08-05T06:46:40;5.22;;;4.78;;
10947;SDS011;5526;42.070;24.752;2022-08-05T06:49:07;5.25;;;4.78;;
10947;SDS011;5526;42.070;24.752;2022-08-05T06:51:34;4.78;;;4.47;;
10947;SDS011;5526;42.070;24.752;2022-08-05T06:54:02;6.05;;;4.32;;
10947;SDS011;5526;42.070;24.752;2022-08-05T06:56:30;4.70;;;4.30;;
10947;SDS011;5526;42.070;24.752;2022-08-05T06:58:58;3.97;;;3.72;;
10947;SDS011;5526;42.070;24.752;2022-08-05T07:01:25;4.78;;;4.40;;
10947;SDS011;5526;42.070;24.752;2022-08-05T07:03:53;4.80;;;4.40;;
10947;SDS011;5526;42.070;24.752;2022-08-05T07:06:20;4.80;;;4.40;;
10947;SDS011;5526;42.070;24.752;2022-08-05T07:08:47;5.57;;;4.40;;
10947;SDS011;5526;42.070;24.752;2022-08-05T07:11:14;5.03;;;4.38;;
10947;SDS011;5526;42.070;24.752;2022-08-05T07:13:41;4.90;;;4.60;;
10947;SDS011;5526;42.070;24.752;2022-08-05T07:16:26;7.10;;;4.60;;
10947;SDS011;5526;42.070;24.752;2022-08-05T07:19:12;5.13;;;4.65;;
10947;SDS011;5526;42.070;24.752;2022-08-05T07:21:39;4.65;;;4.22;;
10947;SDS011;5526;42.070;24.752;2022-08-05T07:24:06;4.40;;;4.20;;
10947;SDS011;5526;42.070;24.752;2022-08-05T07:26:33;5.03;;;4.50;;
10947;SDS011;5526;42.070;24.752;2022-08-05T07:29:00;4.05;;;3.78;;
10947;SDS011;5526;42.070;24.752;2022-08-05T07:31:27;5.00;;;4.65;;
10947;SDS011;5526;42.070;24.752;2022-08-05T07:33:54;7.00;;;5.80;;
10947;SDS011;5526;42.070;24.752;2022-08-05T07:36:22;5.18;;;4.78;;
10947;SDS011;5526;42.070;24.752;2022-08-05T07:38:50;4.90;;;4.40;;
10947;SDS011;5526;42.070;24.752;2022-08-05T07:41:17;4.97;;;4.50;;
10947;SDS011;5526;42.070;24.752;2022-08-05T07:43:46;4.93;;;4.63;;
10947;SDS011;5526;42.070;24.752;2022-08-05T07:46:16;5.03;;;4.72;;
10947;SDS011;5526;42.070;24.752;2022-08-05T07:48:43;4.97;;;4.63;;
10947;SDS011;5526;42.070;24.752;2022-08-05T07:51:10;4.47;;;4.18;;
10947;SDS011;5526;42.070;24.752;2022-08-05T07:53:41;6.60;;;4.30;;
10947;SDS011;5526;42.070;24.752;2022-08-05T07:56:08;9.77;;;5.03;;
10947;SDS011;5526;42.070;24.752;2022-08-05T07:58:35;4.45;;;4.25;;
10947;SDS011;5526;42.070;24.752;2022-08-05T08:01:02;5.65;;;5.15;;
10947;SDS011;5526;42.070;24.752;2022-08-05T08:03:29;4.50;;;4.30;;
10947;SDS011;5526;42.070;24.752;2022-08-05T08:05:56;5.03;;;4.47;;
10947;SDS011;5526;42.070;24.752;2022-08-05T08:08:23;5.82;;;4.85;;
10947;SDS011;5526;42.070;24.752;2022-08-05T08:10:51;5.25;;;4.75;;
10947;SDS011;5526;42.070;24.752;2022-08-05T08:13:19;4.72;;;4.35;;
10947;SDS011;5526;42.070;24.752;2022-08-05T08:15:46;4.55;;;4.25;;
10947;SDS011;5526;42.070;24.752;2022-08-05T08:18:13;5.03;;;4.53;;
10947;SDS011;5526;42.070;24.752;2022-08-05T08:20:40;4.85;;;4.50;;
10947;SDS011;5526;42.070;24.752;2022-08-05T08:23:07;5.03;;;4.60;;
10947;SDS011;5526;42.070;24.752;2022-08-05T08:25:35;4.15;;;3.83;;
10947;SDS011;5526;42.070;24.752;2022-08-05T08:28:03;4.25;;;3.80;;
10947;SDS011;5526;42.070;24.752;2022-08-05T08:30:30;4.97;;;4.68;;
10947;SDS011;5526;42.070;24.752;2022-08-05T08:32:57;5.85;;;4.22;;
10947;SDS011;5526;42.070;24.752;2022-08-05T08:35:24;5.10;;;4.70;;
10947;SDS011;5526;42.070;24.752;2022-08-05T08:37:51;4.60;;;4.22;;
10947;SDS011;5526;42.070;24.752;2022-08-05T08:40:18;5.43;;;4.32;;
10947;SDS011;5526;42.070;24.752;2022-08-05T08:42:46;4.53;;;4.22;;
10947;SDS011;5526;42.070;24.752;2022-08-05T08:45:19;5.70;;;4.95;;
10947;SDS011;5526;42.070;24.752;2022-08-05T08:47:48;3.97;;;3.65;;
10947;SDS011;5526;42.070;24.752;2022-08-05T08:50:16;3.88;;;3.20;;
10947;SDS011;5526;42.070;24.752;2022-08-05T08:52:45;5.25;;;4.07;;
10947;SDS011;5526;42.070;24.752;2022-08-05T08:55:18;3.35;;;3.10;;
10947;SDS011;5526;42.070;24.752;2022-08-05T08:57:46;4.38;;;3.60;;
10947;SDS011;5526;42.070;24.752;2022-08-05T09:00:13;3.30;;;3.00;;
10947;SDS011;5526;42.070;24.752;2022-08-05T09:02:42;3.00;;;2.80;;
10947;SDS011;5526;42.070;24.752;2022-08-05T09:05:10;3.10;;;2.90;;
10947;SDS011;5526;42.070;24.752;2022-08-05T09:07:37;3.20;;;2.67;;
10947;SDS011;5526;42.070;24.752;2022-08-05T09:10:05;3.15;;;2.83;;
10947;SDS011;5526;42.070;24.752;2022-08-05T09:12:33;3.15;;;2.85;;
10947;SDS011;5526;42.070;24.752;2022-08-05T09:15:00;3.42;;;3.13;;
10947;SDS011;5526;42.070;24.752;2022-08-05T09:17:28;3.47;;;3.25;;
10947;SDS011;5526;42.070;24.752;2022-08-05T09:19:57;3.28;;;2.97;;
10947;SDS011;5526;42.070;24.752;2022-08-05T09:22:24;3.28;;;3.17;;
10947;SDS011;5526;42.070;24.752;2022-08-05T09:24:57;3.45;;;3.30;;
10947;SDS011;5526;42.070;24.752;2022-08-05T09:27:29;3.75;;;3.50;;
10947;SDS011;5526;42.070;24.752;2022-08-05T09:29:58;3.72;;;3.53;;
10947;SDS011;5526;42.070;24.752;2022-08-05T09:32:32;3.83;;;3.30;;
10947;SDS011;5526;42.070;24.752;2022-08-05T09:35:07;3.72;;;3.42;;
10947;SDS011;5526;42.070;24.752;2022-08-05T09:37:37;4.43;;;3.30;;
10947;SDS011;5526;42.070;24.752;2022-08-05T09:40:27;3.38;;;3.17;;
10947;SDS011;5526;42.070;24.752;2022-08-05T09:42:57;4.53;;;3.25;;
10947;SDS011;5526;42.070;24.752;2022-08-05T09:45:33;3.50;;;3.20;;
10947;SDS011;5526;42.070;24.752;2022-08-05T09:50:51;3.60;;;3.40;;
10947;SDS011;5526;42.070;24.752;2022-08-05T09:53:19;3.60;;;3.33;;
10947;SDS011;5526;42.070;24.752;2022-08-05T09:55:49;3.30;;;3.00;;
10947;SDS011;5526;42.070;24.752;2022-08-05T09:58:17;3.47;;;3.28;;
10947;SDS011;5526;42.070;24.752;2022-08-05T10:00:51;3.92;;;3.60;;
10947;SDS011;5526;42.070;24.752;2022-08-05T10:03:26;3.45;;;3.25;;
10947;SDS011;5526;42.070;24.752;2022-08-05T10:06:02;3.72;;;3.42;;
10947;SDS011;5526;42.070;24.752;2022-08-05T10:08:31;3.85;;;3.55;;
10947;SDS011;5526;42.070;24.752;2022-08-05T10:10:58;4.00;;;3.70;;
10947;SDS011;5526;42.070;24.752;2022-08-05T10:13:29;3.40;;;3.30;;
10947;SDS011;5526;42.070;24.752;2022-08-05T10:15:58;3.80;;;3.60;;
10947;SDS011;5526;42.070;24.752;2022-08-05T10:18:25;3.42;;;3.22;;
10947;SDS011;5526;42.070;24.752;2022-08-05T10:20:57;3.50;;;3.30;;
10947;SDS011;5526;42.070;24.752;2022-08-05T10:23:28;3.58;;;3.30;;
10947;SDS011;5526;42.070;24.752;2022-08-05T10:25:57;3.90;;;3.70;;
10947;SDS011;5526;42.070;24.752;2022-08-05T10:28:27;4.20;;;3.67;;
10947;SDS011;5526;42.070;24.752;2022-08-05T10:30:55;3.90;;;3.70;;
10947;SDS011;5526;42.070;24.752;2022-08-05T10:33:23;3.83;;;3.53;;
10947;SDS011;5526;42.070;24.752;2022-08-05T10:35:53;3.80;;;3.70;;
10947;SDS011;5526;42.070;24.752;2022-08-05T10:38:22;3.88;;;3.60;;
10947;SDS011;5526;42.070;24.752;2022-08-05T10:40:53;4.80;;;3.58;;
10947;SDS011;5526;42.070;24.752;2022-08-05T10:43:31;3.95;;;3.75;;
10947;SDS011;5526;42.070;24.752;2022-08-05T10:46:06;4.47;;;3.92;;
10947;SDS011;5526;42.070;24.752;2022-08-05T10:48:35;4.00;;;3.70;;
10947;SDS011;5526;42.070;24.752;2022-08-05T10:51:04;3.60;;;3.40;;
10947;SDS011;5526;42.070;24.752;2022-08-05T10:53:41;3.90;;;3.70;;
10947;SDS011;5526;42.070;24.752;2022-08-05T10:56:15;4.00;;;3.80;;
10947;SDS011;5526;42.070;24.752;2022-08-05T10:58:48;4.28;;;4.05;;
10947;SDS011;5526;42.070;24.752;2022-08-05T11:01:28;4.13;;;3.83;;
10947;SDS011;5526;42.070;24.752;2022-08-05T11:03:59;3.95;;;3.70;;
10947;SDS011;5526;42.070;24.752;2022-08-05T11:06:28;4.07;;;3.75;;
10947;SDS011;5526;42.070;24.752;2022-08-05T11:09:11;4.40;;;4.10;;
10947;SDS011;5526;42.070;24.752;2022-08-05T11:11:41;4.57;;;4.28;;
10947;SDS011;5526;42.070;24.752;2022-08-05T11:14:10;4.75;;;3.83;;
10947;SDS011;5526;42.070;24.752;2022-08-05T11:16:38;4.25;;;3.80;;
10947;SDS011;5526;42.070;24.752;2022-08-05T11:21:52;4.07;;;3.80;;
10947;SDS011;5526;42.070;24.752;2022-08-05T11:24:19;3.83;;;3.63;;
10947;SDS011;5526;42.070;24.752;2022-08-05T11:26:49;4.43;;;4.05;;
10947;SDS011;5526;42.070;24.752;2022-08-05T11:29:38;4.38;;;3.97;;
10947;SDS011;5526;42.070;24.752;2022-08-05T11:32:24;4.32;;;4.03;;
10947;SDS011;5526;42.070;24.752;2022-08-05T11:34:53;4.50;;;4.10;;
10947;SDS011;5526;42.070;24.752;2022-08-05T11:43:24;4.38;;;4.18;;
10947;SDS011;5526;42.070;24.752;2022-08-05T11:45:51;11.27;;;4.57;;
10947;SDS011;5526;42.070;24.752;2022-08-05T11:48:19;4.20;;;3.90;;
10947;SDS011;5526;42.070;24.752;2022-08-05T11:50:46;4.20;;;3.90;;
10947;SDS011;5526;42.070;24.752;2022-08-05T11:53:14;4.68;;;4.38;;
10947;SDS011;5526;42.070;24.752;2022-08-05T11:55:54;5.20;;;4.45;;
10947;SDS011;5526;42.070;24.752;2022-08-05T11:58:29;4.40;;;4.00;;
10947;SDS011;5526;42.070;24.752;2022-08-05T12:01:00;4.70;;;4.30;;
10947;SDS011;5526;42.070;24.752;2022-08-05T12:03:28;4.40;;;4.10;;
10947;SDS011;5526;42.070;24.752;2022-08-05T12:05:57;4.05;;;3.75;;
10947;SDS011;5526;42.070;24.752;2022-08-05T12:08:25;16.58;;;4.82;;
10947;SDS011;5526;42.070;24.752;2022-08-05T12:10:52;4.32;;;4.03;;
10947;SDS011;5526;42.070;24.752;2022-08-05T12:13:23;4.57;;;4.18;;
10947;SDS011;5526;42.070;24.752;2022-08-05T12:15:51;5.35;;;4.40;;
10947;SDS011;5526;42.070;24.752;2022-08-05T12:18:18;6.07;;;3.92;;
10947;SDS011;5526;42.070;24.752;2022-08-05T12:20:52;4.53;;;4.20;;
10947;SDS011;5526;42.070;24.752;2022-08-05T12:23:19;4.95;;;4.50;;
10947;SDS011;5526;42.070;24.752;2022-08-05T12:25:50;4.22;;;4.05;;
10947;SDS011;5526;42.070;24.752;2022-08-05T12:28:30;4.82;;;4.35;;
10947;SDS011;5526;42.070;24.752;2022-08-05T12:31:00;4.30;;;4.00;;
10947;SDS011;5526;42.070;24.752;2022-08-05T12:33:27;4.57;;;4.28;;
10947;SDS011;5526;42.070;24.752;2022-08-05T12:35:54;4.53;;;4.22;;
10947;SDS011;5526;42.070;24.752;2022-08-05T12:38:22;4.43;;;4.07;;
10947;SDS011;5526;42.070;24.752;2022-08-05T12:40:49;4.60;;;4.20;;
10947;SDS011;5526;42.070;24.752;2022-08-05T12:43:17;4.60;;;4.40;;
10947;SDS011;5526;42.070;24.752;2022-08-05T12:45:51;4.47;;;4.18;;
10947;SDS011;5526;42.070;24.752;2022-08-05T12:48:20;4.40;;;4.20;;
10947;SDS011;5526;42.070;24.752;2022-08-05T12:53:40;4.68;;;4.43;;
10947;SDS011;5526;42.070;24.752;2022-08-05T12:56:15;4.47;;;4.18;;
10947;SDS011;5526;42.070;24.752;2022-08-05T12:58:43;6.43;;;4.38;;
10947;SDS011;5526;42.070;24.752;2022-08-05T13:01:12;5.45;;;4.45;;
10947;SDS011;5526;42.070;24.752;2022-08-05T13:03:42;4.45;;;4.25;;
10947;SDS011;5526;42.070;24.752;2022-08-05T13:06:12;5.00;;;4.70;;
10947;SDS011;5526;42.070;24.752;2022-08-05T13:08:40;4.55;;;4.30;;
10947;SDS011;5526;42.070;24.752;2022-08-05T13:11:08;4.88;;;4.57;;
10947;SDS011;5526;42.070;24.752;2022-08-05T13:13:42;4.70;;;4.40;;
10947;SDS011;5526;42.070;24.752;2022-08-05T13:16:11;4.75;;;4.38;;
10947;SDS011;5526;42.070;24.752;2022-08-05T13:18:48;4.70;;;4.30;;
10947;SDS011;5526;42.070;24.752;2022-08-05T13:21:18;4.55;;;4.22;;
10947;SDS011;5526;42.070;24.752;2022-08-05T13:23:44;4.30;;;4.10;;
10947;SDS011;5526;42.070;24.752;2022-08-05T13:26:11;4.70;;;4.30;;
10947;SDS011;5526;42.070;24.752;2022-08-05T13:28:38;4.55;;;4.35;;
10947;SDS011;5526;42.070;24.752;2022-08-05T13:31:05;4.80;;;4.47;;
10947;SDS011;5526;42.070;24.752;2022-08-05T13:33:32;4.60;;;4.40;;
10947;SDS011;5526;42.070;24.752;2022-08-05T13:36:00;16.60;;;4.43;;
10947;SDS011;5526;42.070;24.752;2022-08-05T13:38:27;4.28;;;3.88;;
10947;SDS011;5526;42.070;24.752;2022-08-05T13:40:54;4.13;;;3.85;;
10947;SDS011;5526;42.070;24.752;2022-08-05T13:43:21;3.65;;;3.55;;
10947;SDS011;5526;42.070;24.752;2022-08-05T13:45:48;4.30;;;3.67;;
10947;SDS011;5526;42.070;24.752;2022-08-05T13:48:15;4.38;;;4.18;;
10947;SDS011;5526;42.070;24.752;2022-08-05T13:50:42;3.95;;;3.60;;
10947;SDS011;5526;42.070;24.752;2022-08-05T13:53:10;5.95;;;4.90;;
10947;SDS011;5526;42.070;24.752;2022-08-05T13:55:37;4.07;;;3.85;;
10947;SDS011;5526;42.070;24.752;2022-08-05T13:58:04;4.90;;;4.40;;
10947;SDS011;5526;42.070;24.752;2022-08-05T14:00:31;5.88;;;4.25;;
10947;SDS011;5526;42.070;24.752;2022-08-05T14:03:00;4.43;;;4.13;;
10947;SDS011;5526;42.070;24.752;2022-08-05T14:05:27;3.97;;;3.75;;
10947;SDS011;5526;42.070;24.752;2022-08-05T14:07:54;4.32;;;3.90;;
10947;SDS011;5526;42.070;24.752;2022-08-05T14:10:23;4.40;;;3.83;;
10947;SDS011;5526;42.070;24.752;2022-08-05T14:12:50;4.03;;;3.72;;
10947;SDS011;5526;42.070;24.752;2022-08-05T14:15:17;3.80;;;3.60;;
10947;SDS011;5526;42.070;24.752;2022-08-05T14:17:44;4.30;;;4.00;;
10947;SDS011;5526;42.070;24.752;2022-08-05T14:20:11;3.53;;;3.42;;
10947;SDS011;5526;42.070;24.752;2022-08-05T14:22:39;4.07;;;3.88;;
10947;SDS011;5526;42.070;24.752;2022-08-05T14:25:08;4.20;;;3.90;;
10947;SDS011;5526;42.070;24.752;2022-08-05T14:27:37;3.70;;;3.42;;
10947;SDS011;5526;42.070;24.752;2022-08-05T14:30:04;3.90;;;3.60;;
10947;SDS011;5526;42.070;24.752;2022-08-05T14:32:32;4.05;;;3.70;;
10947;SDS011;5526;42.070;24.752;2022-08-05T14:34:59;3.80;;;3.58;;
10947;SDS011;5526;42.070;24.752;2022-08-05T14:37:26;3.72;;;3.47;;
10947;SDS011;5526;42.070;24.752;2022-08-05T14:39:53;4.07;;;3.88;;
10947;SDS011;5526;42.070;24.752;2022-08-05T14:42:20;3.70;;;3.60;;
10947;SDS011;5526;42.070;24.752;2022-08-05T14:44:49;3.35;;;3.22;;
10947;SDS011;5526;42.070;24.752;2022-08-05T14:47:15;3.72;;;3.53;;
10947;SDS011;5526;42.070;24.752;2022-08-05T14:49:42;3.45;;;3.25;;
10947;SDS011;5526;42.070;24.752;2022-08-05T14:52:09;3.90;;;3.70;;
10947;SDS011;5526;42.070;24.752;2022-08-05T14:54:36;3.63;;;3.30;;
10947;SDS011;5526;42.070;24.752;2022-08-05T14:57:03;3.35;;;3.25;;
10947;SDS011;5526;42.070;24.752;2022-08-05T14:59:30;3.50;;;3.40;;
10947;SDS011;5526;42.070;24.752;2022-08-05T15:01:59;4.10;;;3.60;;
10947;SDS011;5526;42.070;24.752;2022-08-05T15:04:26;3.90;;;3.70;;
10947;SDS011;5526;42.070;24.752;2022-08-05T15:06:53;6.28;;;3.40;;
10947;SDS011;5526;42.070;24.752;2022-08-05T15:09:20;3.70;;;3.35;;
10947;SDS011;5526;42.070;24.752;2022-08-05T15:11:47;3.40;;;3.22;;
10947;SDS011;5526;42.070;24.752;2022-08-05T15:14:14;3.70;;;3.50;;